createdAt,value
2023-02-06T00:02:50.503Z,-4.17
2023-02-06T00:07:52.194Z,-4.18
2023-02-06T00:12:54.185Z,-4.20
2023-02-06T00:17:56.229Z,-4.35
2023-02-06T00:22:58.100Z,-4.32
2023-02-06T00:28:00.126Z,-4.43
2023-02-06T00:33:02.013Z,-4.55
2023-02-06T00:38:03.825Z,-4.69
2023-02-06T00:43:05.774Z,-4.56
2023-02-06T00:48:07.657Z,-4.57
2023-02-06T00:53:09.763Z,-4.52
2023-02-06T00:58:11.695Z,-4.56
2023-02-06T01:03:13.669Z,-4.69
2023-02-06T01:08:15.623Z,-4.60
2023-02-06T01:13:17.542Z,-4.70
2023-02-06T01:18:19.472Z,-4.61
2023-02-06T01:23:21.479Z,-4.59
2023-02-06T01:28:23.466Z,-4.69
2023-02-06T01:33:25.351Z,-4.95
2023-02-06T01:38:27.240Z,-4.99
2023-02-06T01:43:30.869Z,-5.03
2023-02-06T01:48:36.033Z,-4.99
2023-02-06T01:53:38.007Z,-5.08
2023-02-06T01:58:44.013Z,-5.11
2023-02-06T02:03:46.668Z,-5.13
2023-02-06T02:08:49.752Z,-5.17
2023-02-06T02:13:51.912Z,-5.21
2023-02-06T02:19:10.629Z,-5.21
2023-02-06T02:24:22.056Z,-5.24
2023-02-06T02:29:54.720Z,-5.16
2023-02-06T02:35:02.529Z,-5.07
2023-02-06T02:40:30.321Z,-5.10
2023-02-06T02:45:48.539Z,-5.21
2023-02-06T02:50:51.446Z,-5.13
2023-02-06T02:55:53.404Z,-5.35
2023-02-06T03:01:02.936Z,-5.41
2023-02-06T03:06:16.823Z,-5.33
2023-02-06T03:11:19.065Z,-5.40
2023-02-06T03:16:54.807Z,-5.40
2023-02-06T03:21:56.723Z,-5.43
2023-02-06T03:27:00.019Z,-5.44
2023-02-06T03:32:17.464Z,-5.60
2023-02-06T03:37:19.817Z,-5.45
2023-02-06T03:42:22.316Z,-5.47
2023-02-06T03:47:24.055Z,-5.38
2023-02-06T03:52:27.047Z,-5.36
2023-02-06T03:57:29.377Z,-5.31
2023-02-06T04:02:31.325Z,-5.49
2023-02-06T04:07:34.628Z,-5.50
2023-02-06T04:12:36.654Z,-5.30
2023-02-06T04:17:53.582Z,-5.15
2023-02-06T04:23:00.452Z,-5.32
2023-02-06T04:28:02.469Z,-5.34
2023-02-06T04:33:04.672Z,-5.40
2023-02-06T04:38:06.634Z,-5.46
2023-02-06T04:43:08.552Z,-5.42
2023-02-06T04:48:10.495Z,-5.40
2023-02-06T04:53:12.320Z,-5.30
2023-02-06T04:58:14.104Z,-5.33
2023-02-06T05:03:15.922Z,-5.13
2023-02-06T05:08:17.750Z,-5.17
2023-02-06T05:13:19.884Z,-5.30
2023-02-06T05:18:21.702Z,-5.55
2023-02-06T05:23:23.502Z,-5.52
2023-02-06T05:28:25.567Z,-5.40
2023-02-06T05:33:27.550Z,-5.55
2023-02-06T05:38:29.336Z,-5.62
2023-02-06T05:43:31.171Z,-5.45
2023-02-06T05:48:32.976Z,-5.36
2023-02-06T05:53:34.802Z,-5.28
2023-02-06T05:58:36.627Z,-5.23
2023-02-06T06:03:38.597Z,-5.15
2023-02-06T06:08:40.443Z,-5.16
2023-02-06T06:13:42.274Z,-5.00
2023-02-06T06:18:44.059Z,-4.86
2023-02-06T06:23:45.906Z,-4.72
2023-02-06T06:28:48.134Z,-4.83
2023-02-06T06:33:49.965Z,-4.95
2023-02-06T06:38:51.777Z,-4.87
2023-02-06T06:43:57.402Z,-4.73
2023-02-06T06:48:59.195Z,-4.50
2023-02-06T06:54:01.068Z,-4.64
2023-02-06T06:59:02.868Z,-4.61
2023-02-06T07:04:04.797Z,-4.42
2023-02-06T07:09:06.610Z,-4.41
2023-02-06T07:14:08.415Z,-4.25
2023-02-06T07:19:10.228Z,-4.22
2023-02-06T07:24:12.030Z,-3.97
2023-02-06T07:29:13.850Z,-3.88
2023-02-06T07:34:15.694Z,-3.79
2023-02-06T07:39:17.544Z,-3.68
2023-02-06T07:44:19.342Z,-3.96
2023-02-06T07:49:21.154Z,-4.18
2023-02-06T07:54:22.960Z,-4.07
2023-02-06T07:59:24.826Z,-4.31
2023-02-06T08:04:26.644Z,-4.49
2023-02-06T08:09:28.610Z,-4.40
2023-02-06T08:14:30.402Z,-4.38
2023-02-06T08:19:32.194Z,-4.12
2023-02-06T08:24:33.948Z,-3.94
2023-02-06T08:29:35.750Z,-4.04
2023-02-06T08:34:39.219Z,-4.09
2023-02-06T08:39:40.985Z,-4.07
2023-02-06T08:44:42.906Z,-3.97
2023-02-06T08:49:44.745Z,-4.04
2023-02-06T08:54:46.508Z,-4.04
2023-02-06T08:59:48.306Z,-4.19
2023-02-06T09:04:50.099Z,-4.07
2023-02-06T09:09:51.917Z,-3.96
2023-02-06T09:14:53.782Z,-4.18
2023-02-06T09:19:55.585Z,-4.02
2023-02-06T09:24:57.407Z,-3.90
2023-02-06T09:29:59.225Z,-3.93
2023-02-06T09:35:01.042Z,-3.80
2023-02-06T09:40:02.855Z,-3.85
2023-02-06T09:45:18.496Z,-3.98
2023-02-06T09:50:40.684Z,-3.88
2023-02-06T09:55:47.960Z,-4.01
2023-02-06T10:01:00.845Z,-3.85
2023-02-06T10:06:22.255Z,-3.58
2023-02-06T10:11:47.331Z,-3.52
2023-02-06T10:17:17.811Z,-3.54
2023-02-06T10:22:30.622Z,-3.82
2023-02-06T10:27:33.073Z,-3.85
2023-02-06T10:33:11.816Z,-3.94
2023-02-06T10:38:57.218Z,-3.93
2023-02-06T10:44:36.596Z,-3.79
2023-02-06T10:49:47.829Z,-3.87
2023-02-06T10:54:55.134Z,-3.89
2023-02-06T11:00:00.933Z,-3.79
2023-02-06T11:05:09.059Z,-4.00
2023-02-06T11:10:21.846Z,-3.64
2023-02-06T11:15:36.819Z,-3.50
2023-02-06T11:20:39.370Z,-3.54
2023-02-06T11:25:41.292Z,-3.46
2023-02-06T11:30:53.547Z,-3.66
2023-02-06T11:35:57.179Z,-3.86
2023-02-06T11:41:06.684Z,-3.83
2023-02-06T11:46:11.576Z,-3.91
2023-02-06T11:51:13.717Z,-3.85
2023-02-06T11:56:19.206Z,-3.73
2023-02-06T12:01:21.629Z,-3.69
2023-02-06T12:06:36.078Z,-3.69
2023-02-06T12:11:54.210Z,-3.69
2023-02-06T12:16:56.088Z,-3.82
2023-02-06T12:22:24.600Z,-3.51
2023-02-06T12:27:44.690Z,-3.45
2023-02-06T12:32:48.490Z,-3.62
2023-02-06T12:37:56.540Z,-3.68
2023-02-06T12:43:03.576Z,-3.71
2023-02-06T12:48:17.281Z,-3.62
2023-02-06T12:53:20.508Z,-3.58
2023-02-06T12:58:29.420Z,-3.57
2023-02-06T13:03:51.547Z,-3.65
2023-02-06T13:08:53.313Z,-3.90
2023-02-06T13:14:04.024Z,-4.12
2023-02-06T13:19:05.864Z,-4.21
2023-02-06T13:24:16.923Z,-4.39
2023-02-06T13:29:23.256Z,-4.49
2023-02-06T13:34:25.168Z,-4.47
2023-02-06T13:39:31.746Z,-4.63
2023-02-06T13:44:37.295Z,-4.62
2023-02-06T13:50:12.477Z,-4.68
2023-02-06T13:55:44.904Z,-4.78
2023-02-06T14:00:47.614Z,-4.50
2023-02-06T14:05:49.331Z,-4.50
2023-02-06T14:11:19.135Z,-4.72
2023-02-06T14:16:36.328Z,-4.75
2023-02-06T14:22:15.981Z,-4.74
2023-02-06T14:27:33.936Z,-4.77
2023-02-06T14:33:11.289Z,-4.98
2023-02-06T14:38:37.516Z,-5.03
2023-02-06T14:43:40.734Z,-4.87
2023-02-06T14:48:51.342Z,-4.90
2023-02-06T14:53:58.401Z,-4.76
2023-02-06T14:59:15.389Z,-4.59
2023-02-06T15:04:28.344Z,-4.46
2023-02-06T15:09:31.103Z,-4.60
2023-02-06T15:14:34.552Z,-4.68
2023-02-06T15:19:36.459Z,-4.69
2023-02-06T15:24:47.266Z,-4.58
2023-02-06T15:29:49.439Z,-4.78
2023-02-06T15:34:51.264Z,-4.98
2023-02-06T15:39:53.504Z,-4.97
2023-02-06T15:44:55.371Z,-4.76
2023-02-06T15:49:57.269Z,-4.75
2023-02-06T15:54:59.632Z,-4.71
2023-02-06T16:00:02.012Z,-4.67
2023-02-06T16:05:04.843Z,-4.83
2023-02-06T16:10:42.351Z,-4.83
2023-02-06T16:16:07.551Z,-4.76
2023-02-06T16:21:18.307Z,-4.81
2023-02-06T16:26:23.725Z,-4.98
2023-02-06T16:31:26.537Z,-4.95
2023-02-06T16:36:29.028Z,-4.89
2023-02-06T16:41:34.366Z,-4.94
2023-02-06T16:46:36.408Z,-4.88
2023-02-06T16:51:38.980Z,-4.84
2023-02-06T16:56:40.702Z,-4.86
2023-02-06T17:01:42.578Z,-5.06
2023-02-06T17:06:44.555Z,-5.05
2023-02-06T17:11:46.558Z,-4.99
2023-02-06T17:16:48.380Z,-4.98
2023-02-06T17:21:50.263Z,-4.93
2023-02-06T17:26:52.081Z,-4.92
2023-02-06T17:31:53.907Z,-4.83
2023-02-06T17:36:55.993Z,-4.88
2023-02-06T17:41:57.785Z,-4.96
2023-02-06T17:46:59.572Z,-4.98
2023-02-06T17:52:01.548Z,-5.07
2023-02-06T17:57:03.485Z,-4.99
2023-02-06T18:02:05.419Z,-5.00
2023-02-06T18:07:07.658Z,-4.90
2023-02-06T18:12:09.532Z,-4.83
2023-02-06T18:17:11.442Z,-5.00
2023-02-06T18:22:15.735Z,-4.97
2023-02-06T18:27:18.554Z,-4.99
2023-02-06T18:32:20.508Z,-4.96
2023-02-06T18:37:22.493Z,-4.97
2023-02-06T18:42:24.483Z,-5.01
2023-02-06T18:47:26.511Z,-4.96
2023-02-06T18:52:28.562Z,-4.93
2023-02-06T18:57:30.458Z,-4.89
2023-02-06T19:02:32.552Z,-4.82
2023-02-06T19:07:34.447Z,-4.94
2023-02-06T19:12:36.887Z,-4.98
2023-02-06T19:17:39.142Z,-4.96
2023-02-06T19:22:43.371Z,-4.99
2023-02-06T19:27:45.677Z,-4.98
2023-02-06T19:32:48.266Z,-4.98
2023-02-06T19:37:51.007Z,-5.17
2023-02-06T19:42:52.903Z,-5.26
2023-02-06T19:47:54.867Z,-5.18
2023-02-06T19:52:57.135Z,-5.13
2023-02-06T19:57:59.055Z,-5.13
2023-02-06T20:03:01.067Z,-5.12
2023-02-06T20:08:03.028Z,-5.07
2023-02-06T20:13:05.048Z,-5.07
2023-02-06T20:18:06.940Z,-5.02
2023-02-06T20:23:08.809Z,-5.03
2023-02-06T20:28:10.702Z,-5.04
2023-02-06T20:33:12.715Z,-4.99
2023-02-06T20:38:14.613Z,-5.02
2023-02-06T20:43:16.477Z,-5.10
2023-02-06T20:48:18.321Z,-5.07
2023-02-06T20:53:20.181Z,-5.12
2023-02-06T20:58:22.143Z,-4.99
2023-02-06T21:03:24.076Z,-5.08
2023-02-06T21:08:26.719Z,-5.12
2023-02-06T21:13:28.793Z,-5.16
2023-02-06T21:18:31.269Z,-5.16
2023-02-06T21:23:33.623Z,-5.25
2023-02-06T21:28:35.695Z,-5.38
2023-02-06T21:33:37.726Z,-5.48
2023-02-06T21:38:39.756Z,-5.42
2023-02-06T21:43:41.724Z,-5.42
2023-02-06T21:48:43.638Z,-5.47
2023-02-06T21:53:45.601Z,-5.45
2023-02-06T21:58:47.926Z,-5.53
2023-02-06T22:03:50.051Z,-5.55
2023-02-06T22:08:52.808Z,-5.44
2023-02-06T22:13:58.258Z,-5.50
2023-02-06T22:19:00.105Z,-5.48
2023-02-06T22:24:03.447Z,-5.48
2023-02-06T22:29:06.707Z,-5.44
2023-02-06T22:34:09.633Z,-5.54
2023-02-06T22:39:11.946Z,-5.48
2023-02-06T22:44:14.102Z,-5.40
2023-02-06T22:49:16.161Z,-5.38
2023-02-06T22:54:18.212Z,-5.23
2023-02-06T22:59:21.827Z,-5.29
2023-02-06T23:04:28.595Z,-5.33
2023-02-06T23:09:32.570Z,-5.40
2023-02-06T23:14:34.461Z,-5.37
2023-02-06T23:19:36.343Z,-5.33
2023-02-06T23:24:38.180Z,-5.52
2023-02-06T23:29:40.199Z,-5.41
2023-02-06T23:34:42.079Z,-5.53
2023-02-06T23:39:43.993Z,-5.44
2023-02-06T23:44:45.904Z,-5.27
2023-02-06T23:49:47.841Z,-5.36
2023-02-06T23:54:49.730Z,-5.47
2023-02-06T23:59:51.642Z,-5.54
